sensor_id;sensor_type;location;lat;lon;timestamp;pressure;altitude;pressure_sealevel;temperature;humidity
44148;BME280;29810;55.848;37.368;2023-04-30T00:01:30;99484.97;;;5.88;58.22
44148;BME280;29810;55.848;37.368;2023-04-30T00:04:32;99485.88;;;5.84;57.85
44148;BME280;29810;55.848;37.368;2023-04-30T00:07:33;99493.66;;;5.84;58.43
44148;BME280;29810;55.848;37.368;2023-04-30T00:10:34;99491.06;;;5.81;58.86
44148;BME280;29810;55.848;37.368;2023-04-30T00:13:35;99498.84;;;5.81;58.69
44148;BME280;29810;55.848;37.368;2023-04-30T00:16:37;99499.72;;;5.80;59.14
44148;BME280;29810;55.848;37.368;2023-04-30T00:19:38;99498.91;;;5.75;59.41
44148;BME280;29810;55.848;37.368;2023-04-30T00:22:39;99501.50;;;5.75;59.45
44148;BME280;29810;55.848;37.368;2023-04-30T00:25:41;99504.09;;;5.76;60.09
44148;BME280;29810;55.848;37.368;2023-04-30T00:28:43;99509.28;;;5.73;59.92
44148;BME280;29810;55.848;37.368;2023-04-30T00:31:44;99505.91;;;5.67;59.76
44148;BME280;29810;55.848;37.368;2023-04-30T00:34:45;99506.88;;;5.58;59.95
44148;BME280;29810;55.848;37.368;2023-04-30T00:37:47;99510.44;;;5.51;59.97
44148;BME280;29810;55.848;37.368;2023-04-30T00:40:48;99513.87;;;5.50;59.95
44148;BME280;29810;55.848;37.368;2023-04-30T00:43:49;99517.31;;;5.50;59.54
44148;BME280;29810;55.848;37.368;2023-04-30T00:46:50;99519.88;;;5.53;60.01
44148;BME280;29810;55.848;37.368;2023-04-30T00:49:52;99519.91;;;5.52;60.32
44148;BME280;29810;55.848;37.368;2023-04-30T00:52:53;99520.69;;;5.55;59.79
44148;BME280;29810;55.848;37.368;2023-04-30T00:55:55;99518.91;;;5.60;60.78
44148;BME280;29810;55.848;37.368;2023-04-30T00:58:57;99521.50;;;5.60;60.91
44148;BME280;29810;55.848;37.368;2023-04-30T01:01:58;99520.72;;;5.54;60.70
44148;BME280;29810;55.848;37.368;2023-04-30T01:05:01;99515.63;;;5.47;60.69
44148;BME280;29810;55.848;37.368;2023-04-30T01:08:02;99507.06;;;5.44;60.69
44148;BME280;29810;55.848;37.368;2023-04-30T01:17:12;99516.53;;;5.45;61.23
44148;BME280;29810;55.848;37.368;2023-04-30T01:20:17;99509.62;;;5.45;61.13
44148;BME280;29810;55.848;37.368;2023-04-30T01:23:27;99511.38;;;5.45;61.56
44148;BME280;29810;55.848;37.368;2023-04-30T01:29:37;99519.06;;;5.48;62.23
44148;BME280;29810;55.848;37.368;2023-04-30T01:32:39;99520.75;;;5.52;62.18
44148;BME280;29810;55.848;37.368;2023-04-30T01:39:16;99509.53;;;5.53;62.04
44148;BME280;29810;55.848;37.368;2023-04-30T01:42:21;99511.25;;;5.54;62.20
44148;BME280;29810;55.848;37.368;2023-04-30T01:51:43;99520.63;;;5.61;61.33
44148;BME280;29810;55.848;37.368;2023-04-30T01:54:50;99518.06;;;5.61;61.72
44148;BME280;29810;55.848;37.368;2023-04-30T01:57:56;99513.75;;;5.60;61.37
44148;BME280;29810;55.848;37.368;2023-04-30T02:00:58;99513.69;;;5.67;61.52
44148;BME280;29810;55.848;37.368;2023-04-30T02:04:00;99516.22;;;5.71;61.53
44148;BME280;29810;55.848;37.368;2023-04-30T02:07:01;99520.44;;;5.78;61.75
44148;BME280;29810;55.848;37.368;2023-04-30T02:10:03;99517.75;;;5.86;61.75
44148;BME280;29810;55.848;37.368;2023-04-30T02:13:04;99515.06;;;5.94;61.32
44148;BME280;29810;55.848;37.368;2023-04-30T02:16:06;99515.81;;;6.04;61.11
44148;BME280;29810;55.848;37.368;2023-04-30T02:19:08;99517.41;;;6.14;60.13
44148;BME280;29810;55.848;37.368;2023-04-30T02:22:09;99516.44;;;6.23;60.18
44148;BME280;29810;55.848;37.368;2023-04-30T02:25:10;99500.88;;;6.24;60.45
44148;BME280;29810;55.848;37.368;2023-04-30T02:28:12;99502.59;;;6.25;60.16
44148;BME280;29810;55.848;37.368;2023-04-30T02:31:13;99499.84;;;6.35;60.18
44148;BME280;29810;55.848;37.368;2023-04-30T02:34:15;99491.84;;;6.50;59.87
44148;BME280;29810;55.848;37.368;2023-04-30T02:37:16;99477.94;;;6.57;59.60
44148;BME280;29810;55.848;37.368;2023-04-30T02:40:17;99488.16;;;6.67;59.58
44148;BME280;29810;55.848;37.368;2023-04-30T02:43:19;99480.34;;;6.68;59.79
44148;BME280;29810;55.848;37.368;2023-04-30T02:46:20;99479.38;;;6.74;59.62
44148;BME280;29810;55.848;37.368;2023-04-30T02:49:22;99480.19;;;6.77;59.87
44148;BME280;29810;55.848;37.368;2023-04-30T02:52:23;99473.38;;;6.72;61.17
44148;BME280;29810;55.848;37.368;2023-04-30T02:55:25;99469.09;;;6.68;61.45
44148;BME280;29810;55.848;37.368;2023-04-30T02:58:26;99465.59;;;6.72;61.05
44148;BME280;29810;55.848;37.368;2023-04-30T03:01:28;99471.56;;;6.75;60.80
44148;BME280;29810;55.848;37.368;2023-04-30T03:04:30;99469.81;;;6.77;61.93
44148;BME280;29810;55.848;37.368;2023-04-30T03:07:32;99467.97;;;6.84;61.06
44148;BME280;29810;55.848;37.368;2023-04-30T03:10:33;99471.66;;;6.71;62.59
44148;BME280;29810;55.848;37.368;2023-04-30T03:13:35;99468.09;;;6.76;62.24
44148;BME280;29810;55.848;37.368;2023-04-30T03:16:36;99464.78;;;7.60;61.54
44148;BME280;29810;55.848;37.368;2023-04-30T03:19:37;99452.47;;;11.37;56.06
44148;BME280;29810;55.848;37.368;2023-04-30T03:22:39;99443.84;;;11.82;49.55
44148;BME280;29810;55.848;37.368;2023-04-30T03:25:40;99450.16;;;10.53;52.40
44148;BME280;29810;55.848;37.368;2023-04-30T03:28:41;99452.00;;;9.63;55.00
44148;BME280;29810;55.848;37.368;2023-04-30T03:31:43;99451.41;;;9.23;56.12
44148;BME280;29810;55.848;37.368;2023-04-30T03:34:45;99433.75;;;11.25;53.80
44148;BME280;29810;55.848;37.368;2023-04-30T03:37:46;99416.97;;;14.93;41.64
44148;BME280;29810;55.848;37.368;2023-04-30T03:40:47;99405.50;;;17.44;38.94
44148;BME280;29810;55.848;37.368;2023-04-30T03:43:49;99406.25;;;20.08;34.75
44148;BME280;29810;55.848;37.368;2023-04-30T03:46:50;99386.81;;;21.71;29.01
44148;BME280;29810;55.848;37.368;2023-04-30T03:49:51;99378.41;;;21.55;28.24
44148;BME280;29810;55.848;37.368;2023-04-30T03:52:55;99365.50;;;22.26;27.12
44148;BME280;29810;55.848;37.368;2023-04-30T03:55:58;99360.59;;;22.22;31.04
44148;BME280;29810;55.848;37.368;2023-04-30T03:59:00;99371.41;;;21.08;29.38
44148;BME280;29810;55.848;37.368;2023-04-30T04:02:03;99377.72;;;20.25;30.62
44148;BME280;29810;55.848;37.368;2023-04-30T04:05:04;99379.22;;;20.51;30.54
44148;BME280;29810;55.848;37.368;2023-04-30T04:08:05;99371.53;;;20.95;31.58
44148;BME280;29810;55.848;37.368;2023-04-30T04:11:08;99377.09;;;21.26;28.27
44148;BME280;29810;55.848;37.368;2023-04-30T04:14:09;99374.78;;;20.99;30.07
44148;BME280;29810;55.848;37.368;2023-04-30T04:17:11;99372.84;;;21.35;28.90
44148;BME280;29810;55.848;37.368;2023-04-30T04:20:12;99370.44;;;21.66;28.57
44148;BME280;29810;55.848;37.368;2023-04-30T04:23:13;99369.00;;;20.94;28.97
44148;BME280;29810;55.848;37.368;2023-04-30T04:26:14;99367.66;;;21.33;28.27
44148;BME280;29810;55.848;37.368;2023-04-30T04:29:16;99373.81;;;21.68;29.01
44148;BME280;29810;55.848;37.368;2023-04-30T04:32:18;99354.50;;;22.94;29.07
44148;BME280;29810;55.848;37.368;2023-04-30T04:35:19;99346.28;;;24.18;27.77
44148;BME280;29810;55.848;37.368;2023-04-30T04:38:21;99340.53;;;24.13;27.45
44148;BME280;29810;55.848;37.368;2023-04-30T04:41:23;99346.50;;;23.66;27.46
44148;BME280;29810;55.848;37.368;2023-04-30T04:44:25;99349.97;;;22.22;30.07
44148;BME280;29810;55.848;37.368;2023-04-30T04:47:27;99361.28;;;22.03;31.23
44148;BME280;29810;55.848;37.368;2023-04-30T04:50:28;99353.72;;;21.87;30.61
44148;BME280;29810;55.848;37.368;2023-04-30T04:53:30;99357.91;;;21.23;31.66
44148;BME280;29810;55.848;37.368;2023-04-30T04:56:31;99360.31;;;20.92;32.39
44148;BME280;29810;55.848;37.368;2023-04-30T04:59:32;99355.91;;;20.57;32.63
44148;BME280;29810;55.848;37.368;2023-04-30T05:02:33;99348.16;;;20.42;32.00
44148;BME280;29810;55.848;37.368;2023-04-30T05:05:35;99348.25;;;20.29;32.43
44148;BME280;29810;55.848;37.368;2023-04-30T05:08:36;99361.53;;;21.33;31.83
44148;BME280;29810;55.848;37.368;2023-04-30T05:11:38;99350.16;;;22.09;29.35
44148;BME280;29810;55.848;37.368;2023-04-30T05:14:41;99352.22;;;22.59;29.44
44148;BME280;29810;55.848;37.368;2023-04-30T05:17:43;99348.91;;;23.19;27.88
44148;BME280;29810;55.848;37.368;2023-04-30T05:20:44;99345.84;;;22.71;28.24
44148;BME280;29810;55.848;37.368;2023-04-30T05:23:45;99344.94;;;22.07;28.31
44148;BME280;29810;55.848;37.368;2023-04-30T05:26:48;99341.72;;;22.36;28.00
44148;BME280;29810;55.848;37.368;2023-04-30T05:29:49;99346.44;;;22.00;28.83
44148;BME280;29810;55.848;37.368;2023-04-30T05:32:50;99348.84;;;22.36;28.81
44148;BME280;29810;55.848;37.368;2023-04-30T05:35:52;99343.03;;;23.25;27.47
44148;BME280;29810;55.848;37.368;2023-04-30T05:38:53;99335.12;;;23.64;27.77
44148;BME280;29810;55.848;37.368;2023-04-30T05:41:55;99346.25;;;23.19;25.40
44148;BME280;29810;55.848;37.368;2023-04-30T05:44:56;99351.94;;;22.62;25.80
44148;BME280;29810;55.848;37.368;2023-04-30T05:47:57;99354.06;;;21.27;27.71
44148;BME280;29810;55.848;37.368;2023-04-30T05:50:58;99354.84;;;20.24;28.53
44148;BME280;29810;55.848;37.368;2023-04-30T05:54:00;99353.81;;;18.76;31.17
44148;BME280;29810;55.848;37.368;2023-04-30T05:57:01;99357.06;;;17.74;33.09
44148;BME280;29810;55.848;37.368;2023-04-30T06:00:03;99352.03;;;18.51;32.42
44148;BME280;29810;55.848;37.368;2023-04-30T06:03:13;99348.44;;;18.78;31.76
44148;BME280;29810;55.848;37.368;2023-04-30T06:06:14;99351.56;;;19.72;31.09
44148;BME280;29810;55.848;37.368;2023-04-30T06:09:15;99361.25;;;19.97;28.90
44148;BME280;29810;55.848;37.368;2023-04-30T06:12:17;99350.06;;;19.43;30.24
44148;BME280;29810;55.848;37.368;2023-04-30T06:15:18;99361.63;;;18.39;31.00
44148;BME280;29810;55.848;37.368;2023-04-30T06:18:19;99368.75;;;16.23;33.77
44148;BME280;29810;55.848;37.368;2023-04-30T06:21:20;99374.38;;;15.53;35.43
44148;BME280;29810;55.848;37.368;2023-04-30T06:24:25;99376.91;;;14.89;36.18
44148;BME280;29810;55.848;37.368;2023-04-30T06:27:27;99380.06;;;14.26;37.07
44148;BME280;29810;55.848;37.368;2023-04-30T06:30:30;99377.13;;;13.78;38.05
44148;BME280;29810;55.848;37.368;2023-04-30T06:33:31;99389.50;;;13.74;38.21
44148;BME280;29810;55.848;37.368;2023-04-30T06:36:32;99385.91;;;13.77;38.17
44148;BME280;29810;55.848;37.368;2023-04-30T06:39:34;99397.19;;;13.60;38.68
44148;BME280;29810;55.848;37.368;2023-04-30T06:42:35;99399.50;;;13.47;39.21
44148;BME280;29810;55.848;37.368;2023-04-30T06:45:36;99392.72;;;13.22;39.83
44148;BME280;29810;55.848;37.368;2023-04-30T06:48:38;99380.50;;;13.44;39.12
44148;BME280;29810;55.848;37.368;2023-04-30T06:51:40;99388.19;;;13.66;38.88
44148;BME280;29810;55.848;37.368;2023-04-30T06:54:41;99381.81;;;13.71;38.88
44148;BME280;29810;55.848;37.368;2023-04-30T06:57:43;99376.09;;;13.44;38.87
44148;BME280;29810;55.848;37.368;2023-04-30T07:00:45;99375.34;;;13.21;39.17
44148;BME280;29810;55.848;37.368;2023-04-30T07:03:46;99343.63;;;13.08;38.25
44148;BME280;29810;55.848;37.368;2023-04-30T07:06:47;99367.03;;;13.12;38.03
44148;BME280;29810;55.848;37.368;2023-04-30T07:09:48;99353.97;;;13.31;38.02
44148;BME280;29810;55.848;37.368;2023-04-30T07:12:50;99351.31;;;13.51;37.07
44148;BME280;29810;55.848;37.368;2023-04-30T07:15:52;99348.41;;;13.57;37.05
44148;BME280;29810;55.848;37.368;2023-04-30T07:18:53;99337.56;;;13.65;36.84
44148;BME280;29810;55.848;37.368;2023-04-30T07:21:54;99334.09;;;13.65;36.61
44148;BME280;29810;55.848;37.368;2023-04-30T07:24:56;99322.13;;;13.96;35.69
44148;BME280;29810;55.848;37.368;2023-04-30T07:27:57;99328.50;;;13.34;34.72
44148;BME280;29810;55.848;37.368;2023-04-30T07:30:59;99330.19;;;13.37;35.66
44148;BME280;29810;55.848;37.368;2023-04-30T07:34:00;99318.50;;;13.62;35.32
44148;BME280;29810;55.848;37.368;2023-04-30T07:37:02;99312.25;;;13.47;34.74
44148;BME280;29810;55.848;37.368;2023-04-30T07:40:03;99315.69;;;13.66;35.49
44148;BME280;29810;55.848;37.368;2023-04-30T07:43:04;99311.03;;;13.90;35.22
44148;BME280;29810;55.848;37.368;2023-04-30T07:46:06;99307.78;;;14.20;34.75
44148;BME280;29810;55.848;37.368;2023-04-30T07:49:07;99300.69;;;13.87;34.35
44148;BME280;29810;55.848;37.368;2023-04-30T07:52:08;99305.38;;;13.44;33.56
44148;BME280;29810;55.848;37.368;2023-04-30T07:55:12;99305.44;;;13.04;33.75
44148;BME280;29810;55.848;37.368;2023-04-30T07:58:13;99285.72;;;12.76;34.30
44148;BME280;29810;55.848;37.368;2023-04-30T08:01:15;99296.84;;;12.63;34.25
44148;BME280;29810;55.848;37.368;2023-04-30T08:04:18;99288.34;;;12.57;34.59
44148;BME280;29810;55.848;37.368;2023-04-30T08:07:19;99280.75;;;12.51;34.41
44148;BME280;29810;55.848;37.368;2023-04-30T08:10:21;99269.19;;;12.76;33.85
44148;BME280;29810;55.848;37.368;2023-04-30T08:13:22;99257.91;;;12.95;34.15
44148;BME280;29810;55.848;37.368;2023-04-30T08:16:24;99252.09;;;13.07;33.92
44148;BME280;29810;55.848;37.368;2023-04-30T08:19:25;99237.19;;;12.90;34.23
44148;BME280;29810;55.848;37.368;2023-04-30T08:22:27;99226.84;;;13.06;34.06
44148;BME280;29810;55.848;37.368;2023-04-30T08:25:28;99224.31;;;13.04;33.84
44148;BME280;29810;55.848;37.368;2023-04-30T08:28:29;99234.81;;;12.65;34.70
44148;BME280;29810;55.848;37.368;2023-04-30T08:31:31;99227.41;;;12.74;34.89
44148;BME280;29810;55.848;37.368;2023-04-30T08:34:32;99215.37;;;12.89;34.58
44148;BME280;29810;55.848;37.368;2023-04-30T08:37:33;99209.53;;;12.84;34.56
44148;BME280;29810;55.848;37.368;2023-04-30T08:40:35;99191.41;;;12.61;35.16
44148;BME280;29810;55.848;37.368;2023-04-30T08:43:37;99204.41;;;12.43;35.75
44148;BME280;29810;55.848;37.368;2023-04-30T08:46:38;99187.31;;;12.15;36.44
44148;BME280;29810;55.848;37.368;2023-04-30T08:49:41;99205.41;;;12.40;36.12
44148;BME280;29810;55.848;37.368;2023-04-30T08:52:43;99185.56;;;12.36;36.18
44148;BME280;29810;55.848;37.368;2023-04-30T08:55:45;99188.50;;;12.48;36.41
44148;BME280;29810;55.848;37.368;2023-04-30T08:58:46;99183.94;;;12.72;36.00
44148;BME280;29810;55.848;37.368;2023-04-30T09:01:47;99166.53;;;12.90;35.40
44148;BME280;29810;55.848;37.368;2023-04-30T09:04:49;99172.97;;;13.02;34.57
44148;BME280;29810;55.848;37.368;2023-04-30T09:07:50;99176.59;;;12.61;35.06
44148;BME280;29810;55.848;37.368;2023-04-30T09:10:52;99161.59;;;12.65;34.93
44148;BME280;29810;55.848;37.368;2023-04-30T09:13:56;99162.16;;;12.71;34.85
44148;BME280;29810;55.848;37.368;2023-04-30T09:16:58;99149.84;;;12.73;34.95
44148;BME280;29810;55.848;37.368;2023-04-30T09:20:11;99140.81;;;12.62;34.88
44148;BME280;29810;55.848;37.368;2023-04-30T09:23:13;99138.75;;;12.49;34.89
44148;BME280;29810;55.848;37.368;2023-04-30T09:26:18;99146.94;;;12.22;35.53
44148;BME280;29810;55.848;37.368;2023-04-30T09:29:21;99126.19;;;12.19;35.49
44148;BME280;29810;55.848;37.368;2023-04-30T09:32:22;99127.81;;;12.22;35.94
44148;BME280;29810;55.848;37.368;2023-04-30T09:35:30;99122.22;;;12.11;35.92
44148;BME280;29810;55.848;37.368;2023-04-30T09:38:32;99114.09;;;12.17;36.06
44148;BME280;29810;55.848;37.368;2023-04-30T09:41:33;99111.25;;;12.21;36.48
44148;BME280;29810;55.848;37.368;2023-04-30T09:44:38;99118.38;;;11.78;37.21
44148;BME280;29810;55.848;37.368;2023-04-30T09:47:39;99102.75;;;11.76;37.51
44148;BME280;29810;55.848;37.368;2023-04-30T09:50:41;99095.78;;;11.56;37.78
44148;BME280;29810;55.848;37.368;2023-04-30T09:53:42;99090.12;;;11.86;37.55
44148;BME280;29810;55.848;37.368;2023-04-30T09:56:44;99081.88;;;11.97;37.86
44148;BME280;29810;55.848;37.368;2023-04-30T09:59:46;99078.97;;;12.03;38.31
44148;BME280;29810;55.848;37.368;2023-04-30T10:02:48;99070.59;;;12.16;37.76
44148;BME280;29810;55.848;37.368;2023-04-30T10:05:50;99056.87;;;12.30;37.72
44148;BME280;29810;55.848;37.368;2023-04-30T10:08:55;99072.56;;;12.11;38.42
44148;BME280;29810;55.848;37.368;2023-04-30T10:11:57;99076.75;;;11.94;38.40
44148;BME280;29810;55.848;37.368;2023-04-30T10:15:05;99094.78;;;11.80;38.84
44148;BME280;29810;55.848;37.368;2023-04-30T10:18:19;99086.87;;;11.81;38.92
44148;BME280;29810;55.848;37.368;2023-04-30T10:21:22;99097.62;;;11.94;39.03
44148;BME280;29810;55.848;37.368;2023-04-30T10:24:25;99075.09;;;12.12;38.48
44148;BME280;29810;55.848;37.368;2023-04-30T10:27:31;99071.63;;;11.72;39.40
44148;BME280;29810;55.848;37.368;2023-04-30T10:30:36;99082.97;;;11.71;38.92
44148;BME280;29810;55.848;37.368;2023-04-30T10:33:43;99065.09;;;11.62;38.78
44148;BME280;29810;55.848;37.368;2023-04-30T10:36:56;99069.47;;;11.82;38.94
44148;BME280;29810;55.848;37.368;2023-04-30T10:40:00;99085.84;;;11.85;38.99
44148;BME280;29810;55.848;37.368;2023-04-30T10:43:03;99072.47;;;12.12;38.07
44148;BME280;29810;55.848;37.368;2023-04-30T10:46:04;99074.31;;;12.10;38.53
44148;BME280;29810;55.848;37.368;2023-04-30T10:49:06;99078.28;;;12.38;38.07
44148;BME280;29810;55.848;37.368;2023-04-30T10:52:09;99070.78;;;12.11;38.65
44148;BME280;29810;55.848;37.368;2023-04-30T10:55:15;99079.19;;;11.99;38.71
44148;BME280;29810;55.848;37.368;2023-04-30T10:58:28;99046.94;;;12.00;37.91
44148;BME280;29810;55.848;37.368;2023-04-30T11:01:30;99061.25;;;12.29;37.82
44148;BME280;29810;55.848;37.368;2023-04-30T11:04:32;99062.81;;;12.52;37.82
44148;BME280;29810;55.848;37.368;2023-04-30T11:07:33;99060.50;;;12.64;37.22
44148;BME280;29810;55.848;37.368;2023-04-30T11:10:35;99062.94;;;12.49;37.16
44148;BME280;29810;55.848;37.368;2023-04-30T11:13:40;99074.44;;;12.45;37.57
44148;BME280;29810;55.848;37.368;2023-04-30T11:16:43;99068.66;;;12.57;37.12
44148;BME280;29810;55.848;37.368;2023-04-30T11:19:49;99074.88;;;12.55;37.18
44148;BME280;29810;55.848;37.368;2023-04-30T11:23:07;99070.28;;;12.60;37.16
44148;BME280;29810;55.848;37.368;2023-04-30T11:26:09;99063.69;;;12.70;36.83
44148;BME280;29810;55.848;37.368;2023-04-30T11:29:10;99054.06;;;12.71;36.90
44148;BME280;29810;55.848;37.368;2023-04-30T11:32:13;99058.66;;;12.66;37.08
44148;BME280;29810;55.848;37.368;2023-04-30T11:35:18;99048.84;;;12.88;37.08
44148;BME280;29810;55.848;37.368;2023-04-30T11:38:35;99043.41;;;12.75;37.09
44148;BME280;29810;55.848;37.368;2023-04-30T11:41:42;99026.16;;;13.06;36.72
44148;BME280;29810;55.848;37.368;2023-04-30T11:44:43;99024.38;;;12.89;36.86
44148;BME280;29810;55.848;37.368;2023-04-30T11:47:48;99006.75;;;13.28;36.57
44148;BME280;29810;55.848;37.368;2023-04-30T11:50:51;99011.22;;;13.26;36.61
44148;BME280;29810;55.848;37.368;2023-04-30T11:53:52;98995.47;;;13.10;37.12
44148;BME280;29810;55.848;37.368;2023-04-30T11:56:54;98988.37;;;12.77;37.62
44148;BME280;29810;55.848;37.368;2023-04-30T12:00:15;99000.03;;;12.52;38.21
44148;BME280;29810;55.848;37.368;2023-04-30T12:03:17;98991.06;;;12.93;37.70
44148;BME280;29810;55.848;37.368;2023-04-30T12:06:25;98974.69;;;13.07;37.50
44148;BME280;29810;55.848;37.368;2023-04-30T12:09:30;98979.53;;;12.97;37.26
44148;BME280;29810;55.848;37.368;2023-04-30T12:12:32;98979.44;;;12.99;37.60
44148;BME280;29810;55.848;37.368;2023-04-30T12:15:37;98981.28;;;13.14;37.18
44148;BME280;29810;55.848;37.368;2023-04-30T12:18:39;98974.75;;;13.23;36.45
44148;BME280;29810;55.848;37.368;2023-04-30T12:21:41;98971.47;;;13.35;36.38
44148;BME280;29810;55.848;37.368;2023-04-30T12:24:44;98972.34;;;13.69;36.42
44148;BME280;29810;55.848;37.368;2023-04-30T12:27:47;98979.66;;;13.47;36.13
44148;BME280;29810;55.848;37.368;2023-04-30T12:30:49;98967.59;;;12.91;37.13
44148;BME280;29810;55.848;37.368;2023-04-30T12:33:54;98976.84;;;12.81;37.45
44148;BME280;29810;55.848;37.368;2023-04-30T12:36:56;98964.75;;;12.61;37.79
44148;BME280;29810;55.848;37.368;2023-04-30T12:39:58;98967.50;;;12.58;37.95
44148;BME280;29810;55.848;37.368;2023-04-30T12:43:04;98971.47;;;12.30;38.35
44148;BME280;29810;55.848;37.368;2023-04-30T12:46:07;98975.16;;;12.26;38.70
44148;BME280;29810;55.848;37.368;2023-04-30T12:49:08;98967.41;;;12.42;38.42
44148;BME280;29810;55.848;37.368;2023-04-30T12:52:11;98978.31;;;12.33;38.60
44148;BME280;29810;55.848;37.368;2023-04-30T12:55:17;98987.03;;;11.95;39.48
44148;BME280;29810;55.848;37.368;2023-04-30T12:58:21;98972.50;;;11.50;40.52
44148;BME280;29810;55.848;37.368;2023-04-30T13:01:23;98953.59;;;11.64;40.65
44148;BME280;29810;55.848;37.368;2023-04-30T13:04:25;98950.16;;;11.82;40.10
44148;BME280;29810;55.848;37.368;2023-04-30T13:07:35;98949.94;;;12.06;39.52
44148;BME280;29810;55.848;37.368;2023-04-30T13:10:37;98938.94;;;11.99;39.45
44148;BME280;29810;55.848;37.368;2023-04-30T13:13:39;98939.16;;;11.95;39.91
44148;BME280;29810;55.848;37.368;2023-04-30T13:16:42;98942.19;;;12.04;39.85
44148;BME280;29810;55.848;37.368;2023-04-30T13:19:44;98940.72;;;11.99;39.99
44148;BME280;29810;55.848;37.368;2023-04-30T13:22:46;98939.00;;;12.17;39.69
44148;BME280;29810;55.848;37.368;2023-04-30T13:25:47;98935.09;;;12.25;39.81
44148;BME280;29810;55.848;37.368;2023-04-30T13:28:49;98938.47;;;12.28;39.72
44148;BME280;29810;55.848;37.368;2023-04-30T13:31:50;98936.78;;;12.26;39.53
44148;BME280;29810;55.848;37.368;2023-04-30T13:34:51;98934.09;;;12.28;39.56
44148;BME280;29810;55.848;37.368;2023-04-30T13:37:57;98926.03;;;12.33;39.69
44148;BME280;29810;55.848;37.368;2023-04-30T13:40:59;98918.03;;;12.36;39.81
44148;BME280;29810;55.848;37.368;2023-04-30T13:44:00;98909.66;;;12.29;39.92
44148;BME280;29810;55.848;37.368;2023-04-30T13:47:02;98910.47;;;12.30;40.05
44148;BME280;29810;55.848;37.368;2023-04-30T13:50:03;98905.09;;;12.15;40.35
44148;BME280;29810;55.848;37.368;2023-04-30T13:53:05;98901.25;;;12.05;40.70
44148;BME280;29810;55.848;37.368;2023-04-30T13:56:06;98897.38;;;11.93;41.37
44148;BME280;29810;55.848;37.368;2023-04-30T13:59:09;98892.12;;;11.95;41.15
44148;BME280;29810;55.848;37.368;2023-04-30T14:02:10;98886.94;;;11.93;41.35
44148;BME280;29810;55.848;37.368;2023-04-30T14:05:13;98891.34;;;11.92;41.68
44148;BME280;29810;55.848;37.368;2023-04-30T14:08:15;98881.06;;;11.70;42.24
44148;BME280;29810;55.848;37.368;2023-04-30T14:11:16;98871.16;;;11.77;42.27
44148;BME280;29810;55.848;37.368;2023-04-30T14:14:18;98865.47;;;11.69;42.81
44148;BME280;29810;55.848;37.368;2023-04-30T14:17:19;98871.75;;;11.65;43.32
44148;BME280;29810;55.848;37.368;2023-04-30T14:20:20;98862.84;;;11.69;42.73
44148;BME280;29810;55.848;37.368;2023-04-30T14:23:22;98855.16;;;11.66;43.28
44148;BME280;29810;55.848;37.368;2023-04-30T14:26:23;98850.69;;;11.68;43.00
44148;BME280;29810;55.848;37.368;2023-04-30T14:29:24;98848.25;;;11.65;43.29
44148;BME280;29810;55.848;37.368;2023-04-30T14:32:26;98853.81;;;11.57;44.12
44148;BME280;29810;55.848;37.368;2023-04-30T14:35:27;98843.50;;;11.54;43.85
44148;BME280;29810;55.848;37.368;2023-04-30T14:38:29;98823.22;;;11.41;44.62
44148;BME280;29810;55.848;37.368;2023-04-30T14:41:34;98814.19;;;11.30;44.80
44148;BME280;29810;55.848;37.368;2023-04-30T14:44:36;98815.34;;;11.24;45.05
44148;BME280;29810;55.848;37.368;2023-04-30T14:47:39;98821.81;;;11.15;45.39
44148;BME280;29810;55.848;37.368;2023-04-30T14:50:40;98817.75;;;11.08;45.54
44148;BME280;29810;55.848;37.368;2023-04-30T14:53:43;98814.25;;;11.09;45.42
44148;BME280;29810;55.848;37.368;2023-04-30T14:56:44;98810.34;;;10.99;46.04
44148;BME280;29810;55.848;37.368;2023-04-30T14:59:45;98801.47;;;11.03;45.78
44148;BME280;29810;55.848;37.368;2023-04-30T15:02:47;98800.78;;;10.99;46.29
44148;BME280;29810;55.848;37.368;2023-04-30T15:05:48;98800.50;;;11.05;46.52
44148;BME280;29810;55.848;37.368;2023-04-30T15:08:49;98791.03;;;11.03;46.03
44148;BME280;29810;55.848;37.368;2023-04-30T15:11:51;98789.37;;;11.02;46.13
44148;BME280;29810;55.848;37.368;2023-04-30T15:14:53;98780.69;;;10.82;47.42
44148;BME280;29810;55.848;37.368;2023-04-30T15:17:55;98788.63;;;10.79;47.67
44148;BME280;29810;55.848;37.368;2023-04-30T15:20:58;98780.16;;;10.74;47.92
44148;BME280;29810;55.848;37.368;2023-04-30T15:24:00;98777.56;;;10.74;48.06
44148;BME280;29810;55.848;37.368;2023-04-30T15:27:01;98766.78;;;10.63;48.60
44148;BME280;29810;55.848;37.368;2023-04-30T15:30:05;98758.00;;;10.64;48.87
44148;BME280;29810;55.848;37.368;2023-04-30T15:33:06;98751.47;;;10.55;49.79
44148;BME280;29810;55.848;37.368;2023-04-30T15:36:08;98753.03;;;10.38;50.49
44148;BME280;29810;55.848;37.368;2023-04-30T15:39:10;98738.31;;;10.17;51.11
44148;BME280;29810;55.848;37.368;2023-04-30T15:42:11;98748.41;;;10.04;50.69
44148;BME280;29810;55.848;37.368;2023-04-30T15:45:12;98758.56;;;10.10;49.68
44148;BME280;29810;55.848;37.368;2023-04-30T15:48:14;98748.97;;;9.90;49.87
44148;BME280;29810;55.848;37.368;2023-04-30T15:51:15;98738.25;;;9.98;49.99
44148;BME280;29810;55.848;37.368;2023-04-30T15:54:18;98729.31;;;9.83;50.62
44148;BME280;29810;55.848;37.368;2023-04-30T15:57:19;98731.88;;;9.84;50.83
44148;BME280;29810;55.848;37.368;2023-04-30T16:00:20;98734.78;;;9.76;51.41
44148;BME280;29810;55.848;37.368;2023-04-30T16:03:23;98736.25;;;9.61;52.90
44148;BME280;29810;55.848;37.368;2023-04-30T16:06:24;98741.66;;;9.35;55.77
44148;BME280;29810;55.848;37.368;2023-04-30T16:09:27;98719.59;;;8.77;58.54
44148;BME280;29810;55.848;37.368;2023-04-30T16:12:28;98717.84;;;8.28;62.62
44148;BME280;29810;55.848;37.368;2023-04-30T16:15:30;98718.91;;;7.71;66.84